sensor_id;sensor_type;location;lat;lon;timestamp;P1;durP1;ratioP1;P2;durP2;ratioP2
72388;SDS011;60566;48.062;9.930;2023-02-01T00:01:50;15.93;;;6.63;;
72388;SDS011;60566;48.062;9.930;2023-02-01T00:04:17;11.45;;;5.65;;
72388;SDS011;60566;48.062;9.930;2023-02-01T00:06:42;11.05;;;5.60;;
72388;SDS011;60566;48.062;9.930;2023-02-01T00:09:07;12.27;;;5.93;;
72388;SDS011;60566;48.062;9.930;2023-02-01T00:11:33;10.82;;;6.22;;
72388;SDS011;60566;48.062;9.930;2023-02-01T00:13:59;14.55;;;6.95;;
72388;SDS011;60566;48.062;9.930;2023-02-01T00:16:25;16.70;;;6.53;;
72388;SDS011;60566;48.062;9.930;2023-02-01T00:18:52;13.30;;;6.10;;
72388;SDS011;60566;48.062;9.930;2023-02-01T00:21:23;12.73;;;6.38;;
72388;SDS011;60566;48.062;9.930;2023-02-01T00:23:48;14.32;;;6.60;;
72388;SDS011;60566;48.062;9.930;2023-02-01T00:26:15;14.80;;;6.82;;
72388;SDS011;60566;48.062;9.930;2023-02-01T00:28:41;14.45;;;6.60;;
72388;SDS011;60566;48.062;9.930;2023-02-01T00:31:06;14.27;;;6.63;;
72388;SDS011;60566;48.062;9.930;2023-02-01T00:33:32;9.63;;;6.35;;
72388;SDS011;60566;48.062;9.930;2023-02-01T00:35:58;13.02;;;6.95;;
72388;SDS011;60566;48.062;9.930;2023-02-01T00:38:25;12.40;;;7.35;;
72388;SDS011;60566;48.062;9.930;2023-02-01T00:40:51;11.30;;;6.05;;
72388;SDS011;60566;48.062;9.930;2023-02-01T00:43:16;14.50;;;5.68;;
72388;SDS011;60566;48.062;9.930;2023-02-01T00:45:42;11.25;;;6.25;;
72388;SDS011;60566;48.062;9.930;2023-02-01T00:48:07;11.45;;;5.35;;
72388;SDS011;60566;48.062;9.930;2023-02-01T00:50:32;9.70;;;5.18;;
72388;SDS011;60566;48.062;9.930;2023-02-01T00:52:58;10.93;;;6.45;;
72388;SDS011;60566;48.062;9.930;2023-02-01T00:55:25;12.82;;;7.55;;
72388;SDS011;60566;48.062;9.930;2023-02-01T00:57:50;11.90;;;5.65;;
72388;SDS011;60566;48.062;9.930;2023-02-01T01:00:16;12.52;;;7.60;;
72388;SDS011;60566;48.062;9.930;2023-02-01T01:02:42;10.35;;;6.50;;
72388;SDS011;60566;48.062;9.930;2023-02-01T01:05:07;9.65;;;4.85;;
72388;SDS011;60566;48.062;9.930;2023-02-01T01:07:33;11.13;;;4.90;;
72388;SDS011;60566;48.062;9.930;2023-02-01T01:09:58;11.80;;;5.97;;
72388;SDS011;60566;48.062;9.930;2023-02-01T01:12:25;11.00;;;5.93;;
72388;SDS011;60566;48.062;9.930;2023-02-01T01:14:50;12.55;;;7.07;;
72388;SDS011;60566;48.062;9.930;2023-02-01T01:17:15;10.43;;;5.72;;
72388;SDS011;60566;48.062;9.930;2023-02-01T01:19:41;11.85;;;5.45;;
72388;SDS011;60566;48.062;9.930;2023-02-01T01:22:06;11.68;;;6.28;;
72388;SDS011;60566;48.062;9.930;2023-02-01T01:24:31;13.00;;;6.80;;
72388;SDS011;60566;48.062;9.930;2023-02-01T01:26:57;13.85;;;6.03;;
72388;SDS011;60566;48.062;9.930;2023-02-01T01:29:23;13.70;;;6.00;;
72388;SDS011;60566;48.062;9.930;2023-02-01T01:31:49;10.43;;;5.15;;
72388;SDS011;60566;48.062;9.930;2023-02-01T01:34:14;18.38;;;6.78;;
72388;SDS011;60566;48.062;9.930;2023-02-01T01:36:40;16.73;;;7.32;;
72388;SDS011;60566;48.062;9.930;2023-02-01T01:39:05;12.73;;;6.80;;
72388;SDS011;60566;48.062;9.930;2023-02-01T01:41:31;12.93;;;5.40;;
72388;SDS011;60566;48.062;9.930;2023-02-01T01:43:58;11.02;;;5.90;;
72388;SDS011;60566;48.062;9.930;2023-02-01T01:46:26;10.25;;;5.50;;
72388;SDS011;60566;48.062;9.930;2023-02-01T01:48:54;9.63;;;5.53;;
72388;SDS011;60566;48.062;9.930;2023-02-01T01:51:23;10.90;;;4.90;;
72388;SDS011;60566;48.062;9.930;2023-02-01T01:53:51;9.93;;;5.78;;
72388;SDS011;60566;48.062;9.930;2023-02-01T01:56:21;9.48;;;6.43;;
72388;SDS011;60566;48.062;9.930;2023-02-01T01:58:46;10.23;;;5.80;;
72388;SDS011;60566;48.062;9.930;2023-02-01T02:01:12;11.82;;;5.28;;
72388;SDS011;60566;48.062;9.930;2023-02-01T02:03:40;11.80;;;7.03;;
72388;SDS011;60566;48.062;9.930;2023-02-01T02:06:17;10.70;;;5.43;;
72388;SDS011;60566;48.062;9.930;2023-02-01T02:08:49;11.68;;;6.15;;
72388;SDS011;60566;48.062;9.930;2023-02-01T02:11:15;10.75;;;6.47;;
72388;SDS011;60566;48.062;9.930;2023-02-01T02:13:42;9.20;;;5.93;;
72388;SDS011;60566;48.062;9.930;2023-02-01T02:19:12;12.60;;;5.68;;
72388;SDS011;60566;48.062;9.930;2023-02-01T02:22:01;8.85;;;6.32;;
72388;SDS011;60566;48.062;9.930;2023-02-01T02:24:50;12.60;;;6.05;;
72388;SDS011;60566;48.062;9.930;2023-02-01T02:27:43;10.15;;;6.28;;
72388;SDS011;60566;48.062;9.930;2023-02-01T02:30:20;13.10;;;6.20;;
72388;SDS011;60566;48.062;9.930;2023-02-01T02:32:58;10.70;;;5.20;;
72388;SDS011;60566;48.062;9.930;2023-02-01T02:35:42;12.65;;;5.80;;
72388;SDS011;60566;48.062;9.930;2023-02-01T02:38:12;9.88;;;5.03;;
72388;SDS011;60566;48.062;9.930;2023-02-01T02:40:41;11.77;;;6.35;;
72388;SDS011;60566;48.062;9.930;2023-02-01T02:43:12;8.77;;;5.70;;
72388;SDS011;60566;48.062;9.930;2023-02-01T02:45:41;10.55;;;5.93;;
72388;SDS011;60566;48.062;9.930;2023-02-01T02:48:11;9.73;;;6.07;;
72388;SDS011;60566;48.062;9.930;2023-02-01T02:50:43;8.90;;;5.65;;
72388;SDS011;60566;48.062;9.930;2023-02-01T02:53:12;10.75;;;5.95;;
72388;SDS011;60566;48.062;9.930;2023-02-01T02:55:40;10.32;;;5.20;;
72388;SDS011;60566;48.062;9.930;2023-02-01T02:58:06;13.27;;;5.47;;
72388;SDS011;60566;48.062;9.930;2023-02-01T03:00:32;13.15;;;6.22;;
72388;SDS011;60566;48.062;9.930;2023-02-01T03:02:58;8.25;;;5.63;;
72388;SDS011;60566;48.062;9.930;2023-02-01T03:05:24;11.13;;;5.97;;
72388;SDS011;60566;48.062;9.930;2023-02-01T03:07:54;11.40;;;5.00;;
72388;SDS011;60566;48.062;9.930;2023-02-01T03:10:24;8.38;;;4.30;;
72388;SDS011;60566;48.062;9.930;2023-02-01T03:12:53;9.85;;;4.60;;
72388;SDS011;60566;48.062;9.930;2023-02-01T03:15:19;10.90;;;5.80;;
72388;SDS011;60566;48.062;9.930;2023-02-01T03:17:46;11.10;;;5.50;;
72388;SDS011;60566;48.062;9.930;2023-02-01T03:20:12;11.15;;;5.80;;
72388;SDS011;60566;48.062;9.930;2023-02-01T03:22:39;10.60;;;4.70;;
72388;SDS011;60566;48.062;9.930;2023-02-01T03:25:09;13.50;;;6.75;;
72388;SDS011;60566;48.062;9.930;2023-02-01T03:27:39;14.88;;;6.72;;
72388;SDS011;60566;48.062;9.930;2023-02-01T03:30:07;8.68;;;4.63;;
72388;SDS011;60566;48.062;9.930;2023-02-01T03:32:34;10.80;;;4.70;;
72388;SDS011;60566;48.062;9.930;2023-02-01T03:35:01;8.73;;;5.55;;
72388;SDS011;60566;48.062;9.930;2023-02-01T03:37:27;9.45;;;5.22;;
72388;SDS011;60566;48.062;9.930;2023-02-01T03:39:53;10.75;;;4.78;;
72388;SDS011;60566;48.062;9.930;2023-02-01T03:42:24;10.27;;;5.30;;
72388;SDS011;60566;48.062;9.930;2023-02-01T03:44:53;11.38;;;5.28;;
72388;SDS011;60566;48.062;9.930;2023-02-01T03:47:23;9.63;;;4.88;;
72388;SDS011;60566;48.062;9.930;2023-02-01T03:49:50;8.02;;;4.80;;
72388;SDS011;60566;48.062;9.930;2023-02-01T03:52:20;11.25;;;5.20;;
72388;SDS011;60566;48.062;9.930;2023-02-01T03:54:47;12.52;;;4.65;;
72388;SDS011;60566;48.062;9.930;2023-02-01T03:57:14;10.88;;;6.07;;
72388;SDS011;60566;48.062;9.930;2023-02-01T03:59:44;10.18;;;6.53;;
72388;SDS011;60566;48.062;9.930;2023-02-01T04:02:10;8.82;;;5.57;;
72388;SDS011;60566;48.062;9.930;2023-02-01T04:04:36;8.73;;;5.20;;
72388;SDS011;60566;48.062;9.930;2023-02-01T04:07:02;8.30;;;5.85;;
72388;SDS011;60566;48.062;9.930;2023-02-01T04:09:27;10.73;;;5.10;;
72388;SDS011;60566;48.062;9.930;2023-02-01T04:11:53;9.63;;;6.13;;
72388;SDS011;60566;48.062;9.930;2023-02-01T04:14:18;9.30;;;4.70;;
72388;SDS011;60566;48.062;9.930;2023-02-01T04:16:45;12.40;;;5.35;;
72388;SDS011;60566;48.062;9.930;2023-02-01T04:19:10;10.43;;;5.05;;
72388;SDS011;60566;48.062;9.930;2023-02-01T04:21:36;10.45;;;4.82;;
72388;SDS011;60566;48.062;9.930;2023-02-01T04:24:01;9.43;;;5.90;;
72388;SDS011;60566;48.062;9.930;2023-02-01T04:26:26;12.98;;;6.13;;
72388;SDS011;60566;48.062;9.930;2023-02-01T04:28:52;9.57;;;4.72;;
72388;SDS011;60566;48.062;9.930;2023-02-01T04:31:17;9.50;;;5.22;;
72388;SDS011;60566;48.062;9.930;2023-02-01T04:33:44;10.20;;;5.20;;
72388;SDS011;60566;48.062;9.930;2023-02-01T04:36:10;8.85;;;4.65;;
72388;SDS011;60566;48.062;9.930;2023-02-01T04:38:35;11.40;;;6.18;;
72388;SDS011;60566;48.062;9.930;2023-02-01T04:41:00;10.15;;;6.35;;
72388;SDS011;60566;48.062;9.930;2023-02-01T04:43:26;9.70;;;5.10;;
72388;SDS011;60566;48.062;9.930;2023-02-01T04:45:51;8.65;;;4.43;;
72388;SDS011;60566;48.062;9.930;2023-02-01T04:48:17;10.32;;;5.47;;
72388;SDS011;60566;48.062;9.930;2023-02-01T04:50:45;9.55;;;5.95;;
72388;SDS011;60566;48.062;9.930;2023-02-01T04:53:11;11.55;;;6.05;;
72388;SDS011;60566;48.062;9.930;2023-02-01T04:55:36;8.93;;;5.65;;
72388;SDS011;60566;48.062;9.930;2023-02-01T04:58:01;10.15;;;5.68;;
72388;SDS011;60566;48.062;9.930;2023-02-01T05:00:27;7.95;;;4.38;;
72388;SDS011;60566;48.062;9.930;2023-02-01T05:02:52;12.35;;;5.95;;
72388;SDS011;60566;48.062;9.930;2023-02-01T05:05:18;11.50;;;5.43;;
72388;SDS011;60566;48.062;9.930;2023-02-01T05:07:44;9.88;;;5.55;;
72388;SDS011;60566;48.062;9.930;2023-02-01T05:10:10;10.43;;;5.28;;
72388;SDS011;60566;48.062;9.930;2023-02-01T05:12:35;9.05;;;5.78;;
72388;SDS011;60566;48.062;9.930;2023-02-01T05:15:01;10.10;;;5.68;;
72388;SDS011;60566;48.062;9.930;2023-02-01T05:17:26;10.77;;;5.47;;
72388;SDS011;60566;48.062;9.930;2023-02-01T05:19:52;11.02;;;6.38;;
72388;SDS011;60566;48.062;9.930;2023-02-01T05:22:17;13.02;;;6.05;;
72388;SDS011;60566;48.062;9.930;2023-02-01T05:24:44;12.40;;;5.65;;
72388;SDS011;60566;48.062;9.930;2023-02-01T05:27:09;10.32;;;5.80;;
72388;SDS011;60566;48.062;9.930;2023-02-01T05:29:34;11.77;;;5.75;;
72388;SDS011;60566;48.062;9.930;2023-02-01T05:32:00;11.02;;;6.10;;
72388;SDS011;60566;48.062;9.930;2023-02-01T05:34:25;12.80;;;6.40;;
72388;SDS011;60566;48.062;9.930;2023-02-01T05:36:50;9.38;;;5.22;;
72388;SDS011;60566;48.062;9.930;2023-02-01T05:39:16;10.63;;;5.47;;
72388;SDS011;60566;48.062;9.930;2023-02-01T05:41:42;12.15;;;6.95;;
72388;SDS011;60566;48.062;9.930;2023-02-01T05:44:08;11.38;;;5.65;;
72388;SDS011;60566;48.062;9.930;2023-02-01T05:46:34;12.02;;;6.07;;
72388;SDS011;60566;48.062;9.930;2023-02-01T05:48:59;9.52;;;5.25;;
72388;SDS011;60566;48.062;9.930;2023-02-01T05:51:25;10.75;;;5.68;;
72388;SDS011;60566;48.062;9.930;2023-02-01T05:53:50;12.57;;;5.43;;
72388;SDS011;60566;48.062;9.930;2023-02-01T05:56:16;10.00;;;5.50;;
72388;SDS011;60566;48.062;9.930;2023-02-01T05:58:42;13.10;;;6.05;;
72388;SDS011;60566;48.062;9.930;2023-02-01T06:01:08;13.63;;;7.03;;
72388;SDS011;60566;48.062;9.930;2023-02-01T06:03:33;9.75;;;5.72;;
72388;SDS011;60566;48.062;9.930;2023-02-01T06:05:58;14.48;;;6.93;;
72388;SDS011;60566;48.062;9.930;2023-02-01T06:08:24;10.52;;;5.65;;
72388;SDS011;60566;48.062;9.930;2023-02-01T06:10:49;10.55;;;5.70;;
72388;SDS011;60566;48.062;9.930;2023-02-01T06:13:15;12.77;;;6.97;;
72388;SDS011;60566;48.062;9.930;2023-02-01T06:15:41;12.13;;;5.90;;
72388;SDS011;60566;48.062;9.930;2023-02-01T06:18:07;8.20;;;5.28;;
72388;SDS011;60566;48.062;9.930;2023-02-01T06:20:32;13.18;;;6.45;;
72388;SDS011;60566;48.062;9.930;2023-02-01T06:22:57;12.73;;;5.30;;
72388;SDS011;60566;48.062;9.930;2023-02-01T06:25:23;12.95;;;6.63;;
72388;SDS011;60566;48.062;9.930;2023-02-01T06:27:48;12.38;;;6.28;;
72388;SDS011;60566;48.062;9.930;2023-02-01T06:30:14;11.68;;;6.35;;
72388;SDS011;60566;48.062;9.930;2023-02-01T06:32:40;9.32;;;5.03;;
72388;SDS011;60566;48.062;9.930;2023-02-01T06:35:06;10.88;;;6.18;;
72388;SDS011;60566;48.062;9.930;2023-02-01T06:37:33;11.98;;;5.40;;
72388;SDS011;60566;48.062;9.930;2023-02-01T06:39:58;11.00;;;5.75;;
72388;SDS011;60566;48.062;9.930;2023-02-01T06:42:23;12.35;;;6.60;;
72388;SDS011;60566;48.062;9.930;2023-02-01T06:44:49;11.18;;;6.22;;
72388;SDS011;60566;48.062;9.930;2023-02-01T06:47:14;13.18;;;7.85;;
72388;SDS011;60566;48.062;9.930;2023-02-01T06:49:41;10.55;;;5.35;;
72388;SDS011;60566;48.062;9.930;2023-02-01T06:52:06;13.07;;;7.05;;
72388;SDS011;60566;48.062;9.930;2023-02-01T06:54:32;11.18;;;6.18;;
72388;SDS011;60566;48.062;9.930;2023-02-01T06:56:57;12.45;;;6.00;;
72388;SDS011;60566;48.062;9.930;2023-02-01T06:59:22;12.90;;;6.90;;
72388;SDS011;60566;48.062;9.930;2023-02-01T07:01:48;13.75;;;8.13;;
72388;SDS011;60566;48.062;9.930;2023-02-01T07:04:13;11.77;;;5.40;;
72388;SDS011;60566;48.062;9.930;2023-02-01T07:06:40;14.07;;;6.15;;
72388;SDS011;60566;48.062;9.930;2023-02-01T07:09:05;14.73;;;7.50;;
72388;SDS011;60566;48.062;9.930;2023-02-01T07:11:31;11.52;;;7.30;;
72388;SDS011;60566;48.062;9.930;2023-02-01T07:13:56;14.70;;;6.35;;
72388;SDS011;60566;48.062;9.930;2023-02-01T07:16:22;13.73;;;8.18;;
72388;SDS011;60566;48.062;9.930;2023-02-01T07:18:47;12.95;;;6.68;;
72388;SDS011;60566;48.062;9.930;2023-02-01T07:21:14;11.98;;;6.80;;
72388;SDS011;60566;48.062;9.930;2023-02-01T07:23:41;10.43;;;6.90;;
72388;SDS011;60566;48.062;9.930;2023-02-01T07:26:07;15.68;;;7.28;;
72388;SDS011;60566;48.062;9.930;2023-02-01T07:28:35;12.40;;;7.05;;
72388;SDS011;60566;48.062;9.930;2023-02-01T07:31:03;11.43;;;6.22;;
72388;SDS011;60566;48.062;9.930;2023-02-01T07:33:29;12.75;;;6.15;;
72388;SDS011;60566;48.062;9.930;2023-02-01T07:35:55;13.45;;;7.45;;
72388;SDS011;60566;48.062;9.930;2023-02-01T07:38:20;16.30;;;6.72;;
72388;SDS011;60566;48.062;9.930;2023-02-01T07:40:47;13.93;;;7.30;;
72388;SDS011;60566;48.062;9.930;2023-02-01T07:43:12;12.60;;;6.38;;
72388;SDS011;60566;48.062;9.930;2023-02-01T07:45:37;13.93;;;7.32;;
72388;SDS011;60566;48.062;9.930;2023-02-01T07:48:03;12.20;;;7.03;;
72388;SDS011;60566;48.062;9.930;2023-02-01T07:50:29;11.13;;;6.05;;
72388;SDS011;60566;48.062;9.930;2023-02-01T07:52:55;12.35;;;6.35;;
72388;SDS011;60566;48.062;9.930;2023-02-01T07:55:20;13.48;;;6.35;;
72388;SDS011;60566;48.062;9.930;2023-02-01T07:57:47;11.73;;;7.00;;
72388;SDS011;60566;48.062;9.930;2023-02-01T08:00:13;10.52;;;6.45;;
72388;SDS011;60566;48.062;9.930;2023-02-01T08:02:39;11.43;;;6.10;;
72388;SDS011;60566;48.062;9.930;2023-02-01T08:05:04;12.52;;;6.90;;
72388;SDS011;60566;48.062;9.930;2023-02-01T08:07:30;12.32;;;7.10;;
72388;SDS011;60566;48.062;9.930;2023-02-01T08:09:56;15.07;;;6.75;;
72388;SDS011;60566;48.062;9.930;2023-02-01T08:12:21;14.40;;;6.43;;
72388;SDS011;60566;48.062;9.930;2023-02-01T08:14:48;10.90;;;7.43;;
72388;SDS011;60566;48.062;9.930;2023-02-01T08:17:13;11.43;;;6.18;;
72388;SDS011;60566;48.062;9.930;2023-02-01T08:19:39;10.80;;;5.60;;
72388;SDS011;60566;48.062;9.930;2023-02-01T08:22:04;12.55;;;6.15;;
72388;SDS011;60566;48.062;9.930;2023-02-01T08:24:29;12.20;;;7.00;;
72388;SDS011;60566;48.062;9.930;2023-02-01T08:26:55;10.73;;;6.00;;
72388;SDS011;60566;48.062;9.930;2023-02-01T08:29:20;12.07;;;6.05;;
72388;SDS011;60566;48.062;9.930;2023-02-01T08:31:47;18.00;;;8.00;;
72388;SDS011;60566;48.062;9.930;2023-02-01T08:34:12;12.65;;;6.53;;
72388;SDS011;60566;48.062;9.930;2023-02-01T08:36:38;10.55;;;5.43;;
72388;SDS011;60566;48.062;9.930;2023-02-01T08:39:03;16.85;;;7.68;;
72388;SDS011;60566;48.062;9.930;2023-02-01T08:41:29;12.60;;;6.78;;
72388;SDS011;60566;48.062;9.930;2023-02-01T08:43:55;12.75;;;5.60;;
72388;SDS011;60566;48.062;9.930;2023-02-01T08:46:20;8.88;;;4.32;;
72388;SDS011;60566;48.062;9.930;2023-02-01T08:48:47;10.80;;;6.45;;
72388;SDS011;60566;48.062;9.930;2023-02-01T08:51:13;10.98;;;6.55;;
72388;SDS011;60566;48.062;9.930;2023-02-01T08:53:39;13.32;;;5.95;;
72388;SDS011;60566;48.062;9.930;2023-02-01T08:56:05;10.25;;;5.22;;
72388;SDS011;60566;48.062;9.930;2023-02-01T08:58:31;10.80;;;6.43;;
72388;SDS011;60566;48.062;9.930;2023-02-01T09:00:56;9.15;;;5.32;;
72388;SDS011;60566;48.062;9.930;2023-02-01T09:03:21;7.93;;;4.25;;
72388;SDS011;60566;48.062;9.930;2023-02-01T09:05:48;14.10;;;5.80;;
72388;SDS011;60566;48.062;9.930;2023-02-01T09:08:13;11.15;;;5.82;;
72388;SDS011;60566;48.062;9.930;2023-02-01T09:10:39;8.70;;;5.30;;
72388;SDS011;60566;48.062;9.930;2023-02-01T09:13:04;8.35;;;5.93;;
72388;SDS011;60566;48.062;9.930;2023-02-01T09:15:30;10.02;;;5.30;;
72388;SDS011;60566;48.062;9.930;2023-02-01T09:17:55;11.05;;;5.50;;
72388;SDS011;60566;48.062;9.930;2023-02-01T09:20:20;9.68;;;5.00;;
72388;SDS011;60566;48.062;9.930;2023-02-01T09:22:47;10.10;;;5.45;;
72388;SDS011;60566;48.062;9.930;2023-02-01T09:25:12;10.27;;;5.72;;
72388;SDS011;60566;48.062;9.930;2023-02-01T09:27:38;11.95;;;5.40;;
72388;SDS011;60566;48.062;9.930;2023-02-01T09:30:03;9.32;;;4.80;;
72388;SDS011;60566;48.062;9.930;2023-02-01T09:32:29;9.43;;;5.15;;
72388;SDS011;60566;48.062;9.930;2023-02-01T09:34:55;15.30;;;7.07;;
72388;SDS011;60566;48.062;9.930;2023-02-01T09:37:20;12.48;;;5.63;;
72388;SDS011;60566;48.062;9.930;2023-02-01T09:39:47;9.25;;;5.15;;
72388;SDS011;60566;48.062;9.930;2023-02-01T09:42:16;11.20;;;5.50;;
72388;SDS011;60566;48.062;9.930;2023-02-01T09:44:53;10.20;;;4.78;;
72388;SDS011;60566;48.062;9.930;2023-02-01T09:47:27;9.00;;;5.22;;
72388;SDS011;60566;48.062;9.930;2023-02-01T09:49:55;11.63;;;6.10;;
72388;SDS011;60566;48.062;9.930;2023-02-01T09:52:23;13.85;;;5.57;;
72388;SDS011;60566;48.062;9.930;2023-02-01T09:54:54;10.20;;;5.38;;
72388;SDS011;60566;48.062;9.930;2023-02-01T09:57:22;10.95;;;6.05;;
72388;SDS011;60566;48.062;9.930;2023-02-01T09:59:51;10.07;;;6.15;;
72388;SDS011;60566;48.062;9.930;2023-02-01T10:02:19;11.05;;;6.22;;
72388;SDS011;60566;48.062;9.930;2023-02-01T10:04:45;10.52;;;5.38;;
72388;SDS011;60566;48.062;9.930;2023-02-01T10:07:18;11.93;;;6.93;;
72388;SDS011;60566;48.062;9.930;2023-02-01T10:09:54;11.80;;;6.97;;
72388;SDS011;60566;48.062;9.930;2023-02-01T10:15:26;11.48;;;6.05;;
72388;SDS011;60566;48.062;9.930;2023-02-01T10:18:10;15.20;;;6.15;;
72388;SDS011;60566;48.062;9.930;2023-02-01T10:20:47;10.05;;;5.80;;
72388;SDS011;60566;48.062;9.930;2023-02-01T10:23:25;11.40;;;6.25;;
72388;SDS011;60566;48.062;9.930;2023-02-01T10:25:58;9.75;;;5.57;;
72388;SDS011;60566;48.062;9.930;2023-02-01T10:28:28;13.52;;;6.93;;
72388;SDS011;60566;48.062;9.930;2023-02-01T10:30:58;11.48;;;6.43;;
72388;SDS011;60566;48.062;9.930;2023-02-01T10:33:24;8.93;;;5.03;;
72388;SDS011;60566;48.062;9.930;2023-02-01T10:35:52;10.88;;;6.43;;
72388;SDS011;60566;48.062;9.930;2023-02-01T10:38:20;15.07;;;6.45;;
72388;SDS011;60566;48.062;9.930;2023-02-01T10:40:49;10.93;;;6.00;;
72388;SDS011;60566;48.062;9.930;2023-02-01T10:43:15;13.32;;;5.57;;
72388;SDS011;60566;48.062;9.930;2023-02-01T10:45:41;13.55;;;7.43;;
72388;SDS011;60566;48.062;9.930;2023-02-01T10:48:07;14.50;;;7.22;;
72388;SDS011;60566;48.062;9.930;2023-02-01T10:50:34;9.93;;;6.75;;
72388;SDS011;60566;48.062;9.930;2023-02-01T10:53:01;9.82;;;5.40;;
72388;SDS011;60566;48.062;9.930;2023-02-01T10:55:32;8.60;;;5.13;;
72388;SDS011;60566;48.062;9.930;2023-02-01T10:58:00;10.40;;;6.22;;
72388;SDS011;60566;48.062;9.930;2023-02-01T11:00:28;10.30;;;5.20;;
72388;SDS011;60566;48.062;9.930;2023-02-01T11:03:01;9.98;;;6.53;;
72388;SDS011;60566;48.062;9.930;2023-02-01T11:05:45;15.55;;;6.00;;
72388;SDS011;60566;48.062;9.930;2023-02-01T11:08:12;8.65;;;5.85;;
72388;SDS011;60566;48.062;9.930;2023-02-01T11:10:40;9.90;;;6.13;;
72388;SDS011;60566;48.062;9.930;2023-02-01T11:13:11;9.77;;;6.35;;
72388;SDS011;60566;48.062;9.930;2023-02-01T11:15:42;11.00;;;6.63;;
72388;SDS011;60566;48.062;9.930;2023-02-01T11:18:14;11.10;;;6.13;;
72388;SDS011;60566;48.062;9.930;2023-02-01T11:20:41;10.45;;;5.05;;
72388;SDS011;60566;48.062;9.930;2023-02-01T11:23:12;14.05;;;5.28;;
72388;SDS011;60566;48.062;9.930;2023-02-01T11:25:39;9.27;;;6.68;;
72388;SDS011;60566;48.062;9.930;2023-02-01T11:28:13;10.57;;;5.45;;
72388;SDS011;60566;48.062;9.930;2023-02-01T11:30:41;11.00;;;5.97;;
72388;SDS011;60566;48.062;9.930;2023-02-01T11:33:10;11.88;;;5.68;;
72388;SDS011;60566;48.062;9.930;2023-02-01T11:35:38;10.38;;;7.72;;
72388;SDS011;60566;48.062;9.930;2023-02-01T11:38:10;13.02;;;6.75;;
72388;SDS011;60566;48.062;9.930;2023-02-01T11:40:40;7.90;;;4.63;;
72388;SDS011;60566;48.062;9.930;2023-02-01T11:43:07;10.20;;;4.68;;
72388;SDS011;60566;48.062;9.930;2023-02-01T11:45:33;10.18;;;4.40;;
72388;SDS011;60566;48.062;9.930;2023-02-01T11:48:00;13.18;;;6.15;;
72388;SDS011;60566;48.062;9.930;2023-02-01T11:50:28;12.88;;;4.72;;
72388;SDS011;60566;48.062;9.930;2023-02-01T11:53:02;8.23;;;5.25;;
72388;SDS011;60566;48.062;9.930;2023-02-01T11:55:48;8.10;;;4.90;;
72388;SDS011;60566;48.062;9.930;2023-02-01T11:58:22;9.63;;;5.75;;
72388;SDS011;60566;48.062;9.930;2023-02-01T12:01:01;9.45;;;5.25;;
72388;SDS011;60566;48.062;9.930;2023-02-01T12:03:55;9.93;;;4.13;;
72388;SDS011;60566;48.062;9.930;2023-02-01T12:06:32;9.90;;;4.78;;
72388;SDS011;60566;48.062;9.930;2023-02-01T12:09:07;7.35;;;3.92;;
72388;SDS011;60566;48.062;9.930;2023-02-01T12:11:55;7.85;;;4.60;;
72388;SDS011;60566;48.062;9.930;2023-02-01T12:14:30;8.55;;;3.88;;
72388;SDS011;60566;48.062;9.930;2023-02-01T12:20:09;7.93;;;4.35;;
72388;SDS011;60566;48.062;9.930;2023-02-01T12:22:43;9.20;;;4.55;;
72388;SDS011;60566;48.062;9.930;2023-02-01T12:25:20;10.90;;;5.88;;
72388;SDS011;60566;48.062;9.930;2023-02-01T12:31:06;11.38;;;4.13;;
72388;SDS011;60566;48.062;9.930;2023-02-01T12:33:42;9.15;;;4.53;;
72388;SDS011;60566;48.062;9.930;2023-02-01T12:36:18;8.70;;;4.43;;
72388;SDS011;60566;48.062;9.930;2023-02-01T12:38:53;8.07;;;3.95;;
72388;SDS011;60566;48.062;9.930;2023-02-01T12:41:26;8.45;;;5.18;;
72388;SDS011;60566;48.062;9.930;2023-02-01T12:44:00;7.57;;;5.15;;
72388;SDS011;60566;48.062;9.930;2023-02-01T12:46:27;8.80;;;4.65;;
72388;SDS011;60566;48.062;9.930;2023-02-01T12:48:56;9.18;;;3.65;;
72388;SDS011;60566;48.062;9.930;2023-02-01T12:51:26;7.15;;;3.95;;
72388;SDS011;60566;48.062;9.930;2023-02-01T12:56:20;10.32;;;5.05;;
72388;SDS011;60566;48.062;9.930;2023-02-01T12:58:48;9.57;;;4.82;;
72388;SDS011;60566;48.062;9.930;2023-02-01T13:01:16;8.30;;;4.68;;
72388;SDS011;60566;48.062;9.930;2023-02-01T13:03:50;6.88;;;3.75;;
72388;SDS011;60566;48.062;9.930;2023-02-01T13:06:19;6.25;;;4.10;;
72388;SDS011;60566;48.062;9.930;2023-02-01T13:08:50;9.65;;;4.35;;
72388;SDS011;60566;48.062;9.930;2023-02-01T13:11:20;8.68;;;4.97;;
72388;SDS011;60566;48.062;9.930;2023-02-01T13:13:52;6.38;;;4.20;;
72388;SDS011;60566;48.062;9.930;2023-02-01T13:16:23;7.10;;;4.03;;
72388;SDS011;60566;48.062;9.930;2023-02-01T13:18:50;12.68;;;5.65;;
72388;SDS011;60566;48.062;9.930;2023-02-01T13:21:18;10.27;;;4.22;;
72388;SDS011;60566;48.062;9.930;2023-02-01T13:23:46;8.57;;;3.90;;
72388;SDS011;60566;48.062;9.930;2023-02-01T13:26:14;7.07;;;4.20;;
72388;SDS011;60566;48.062;9.930;2023-02-01T13:28:41;7.72;;;3.97;;
72388;SDS011;60566;48.062;9.930;2023-02-01T13:31:17;8.43;;;3.92;;
72388;SDS011;60566;48.062;9.930;2023-02-01T13:36:47;8.52;;;3.58;;
72388;SDS011;60566;48.062;9.930;2023-02-01T13:39:42;8.32;;;4.65;;
72388;SDS011;60566;48.062;9.930;2023-02-01T13:42:14;6.93;;;3.80;;
72388;SDS011;60566;48.062;9.930;2023-02-01T13:44:43;6.82;;;4.25;;
72388;SDS011;60566;48.062;9.930;2023-02-01T13:47:12;7.40;;;4.05;;
72388;SDS011;60566;48.062;9.930;2023-02-01T13:49:40;8.50;;;4.28;;
72388;SDS011;60566;48.062;9.930;2023-02-01T13:52:06;7.75;;;3.80;;
72388;SDS011;60566;48.062;9.930;2023-02-01T13:54:43;11.48;;;4.18;;
72388;SDS011;60566;48.062;9.930;2023-02-01T13:57:14;10.57;;;4.65;;
72388;SDS011;60566;48.062;9.930;2023-02-01T14:00:05;5.88;;;4.07;;
72388;SDS011;60566;48.062;9.930;2023-02-01T14:02:37;7.47;;;3.30;;
72388;SDS011;60566;48.062;9.930;2023-02-01T14:05:11;5.22;;;3.00;;
72388;SDS011;60566;48.062;9.930;2023-02-01T14:07:49;7.07;;;4.78;;
72388;SDS011;60566;48.062;9.930;2023-02-01T14:10:47;11.73;;;3.20;;
72388;SDS011;60566;48.062;9.930;2023-02-01T14:13:21;5.93;;;2.42;;
72388;SDS011;60566;48.062;9.930;2023-02-01T14:16:00;5.18;;;2.10;;
72388;SDS011;60566;48.062;9.930;2023-02-01T14:18:49;3.97;;;2.88;;
72388;SDS011;60566;48.062;9.930;2023-02-01T14:21:24;9.48;;;4.20;;
72388;SDS011;60566;48.062;9.930;2023-02-01T14:23:55;7.68;;;2.60;;
72388;SDS011;60566;48.062;9.930;2023-02-01T14:26:24;6.10;;;3.00;;
72388;SDS011;60566;48.062;9.930;2023-02-01T14:29:01;6.70;;;3.63;;
72388;SDS011;60566;48.062;9.930;2023-02-01T14:34:19;6.25;;;2.72;;
72388;SDS011;60566;48.062;9.930;2023-02-01T14:36:56;8.48;;;3.70;;
72388;SDS011;60566;48.062;9.930;2023-02-01T14:39:24;7.25;;;4.32;;
72388;SDS011;60566;48.062;9.930;2023-02-01T14:41:54;5.47;;;2.80;;
72388;SDS011;60566;48.062;9.930;2023-02-01T14:44:23;6.70;;;3.22;;
72388;SDS011;60566;48.062;9.930;2023-02-01T14:47:03;5.75;;;4.30;;
72388;SDS011;60566;48.062;9.930;2023-02-01T14:49:33;8.63;;;3.33;;
72388;SDS011;60566;48.062;9.930;2023-02-01T14:52:00;5.10;;;3.63;;
72388;SDS011;60566;48.062;9.930;2023-02-01T14:54:27;6.60;;;4.30;;
72388;SDS011;60566;48.062;9.930;2023-02-01T14:56:55;7.88;;;4.28;;
72388;SDS011;60566;48.062;9.930;2023-02-01T14:59:20;8.15;;;4.40;;
72388;SDS011;60566;48.062;9.930;2023-02-01T15:01:48;8.13;;;3.38;;
72388;SDS011;60566;48.062;9.930;2023-02-01T15:04:15;7.28;;;4.10;;
72388;SDS011;60566;48.062;9.930;2023-02-01T15:06:42;5.82;;;3.63;;